createdAt,value
2023-10-08T00:00:44.403Z,15.58
2023-10-08T00:02:46.729Z,15.58
2023-10-08T00:04:48.434Z,15.53
2023-10-08T00:06:53.572Z,15.56
2023-10-08T00:09:00.887Z,15.49
2023-10-08T00:11:11.168Z,15.43
2023-10-08T00:13:14.408Z,15.50
2023-10-08T00:15:16.105Z,15.57
2023-10-08T00:17:20.818Z,15.51
2023-10-08T00:19:23.320Z,15.56
2023-10-08T00:21:28.788Z,15.60
2023-10-08T00:23:31.513Z,15.60
2023-10-08T00:25:35.153Z,15.56
2023-10-08T00:27:40.637Z,15.58
2023-10-08T00:29:44.541Z,15.53
2023-10-08T00:31:47.051Z,15.55
2023-10-08T00:33:49.167Z,15.58
2023-10-08T00:35:51.275Z,15.57
2023-10-08T00:37:53.516Z,15.57
2023-10-08T00:39:58.015Z,15.54
2023-10-08T00:42:01.120Z,15.60
2023-10-08T00:44:07.033Z,15.59
2023-10-08T00:46:25.172Z,15.58
2023-10-08T00:48:30.413Z,15.56
2023-10-08T00:50:43.811Z,15.56
2023-10-08T00:52:54.950Z,15.57
2023-10-08T00:55:05.866Z,15.55
2023-10-08T00:57:08.593Z,15.60
2023-10-08T00:59:14.178Z,15.65
2023-10-08T01:01:18.062Z,15.58
2023-10-08T01:03:20.677Z,15.53
2023-10-08T01:05:51.811Z,15.60
2023-10-08T01:07:54.689Z,15.49
2023-10-08T01:10:01.212Z,15.54
2023-10-08T01:12:23.766Z,15.55
2023-10-08T01:14:32.896Z,15.57
2023-10-08T01:16:37.891Z,15.57
2023-10-08T01:18:44.403Z,15.55
2023-10-08T01:20:48.587Z,15.64
2023-10-08T01:22:51.438Z,15.67
2023-10-08T01:24:53.063Z,15.65
2023-10-08T01:26:54.792Z,15.62
2023-10-08T01:28:56.387Z,15.64
2023-10-08T01:31:01.871Z,15.65
2023-10-08T01:33:04.275Z,15.56
2023-10-08T01:35:22.898Z,15.57
2023-10-08T01:37:24.692Z,15.54
2023-10-08T01:39:27.479Z,15.56
2023-10-08T01:41:32.057Z,15.58
2023-10-08T01:43:33.775Z,15.57
2023-10-08T01:45:42.291Z,15.60
2023-10-08T01:47:44.578Z,15.53
2023-10-08T01:49:47.505Z,15.48
2023-10-08T01:51:50.452Z,15.50
2023-10-08T01:53:59.465Z,15.45
2023-10-08T01:56:02.797Z,15.43
2023-10-08T01:58:05.165Z,15.45
2023-10-08T02:00:10.244Z,15.44
2023-10-08T02:02:16.369Z,15.42
2023-10-08T02:04:18.638Z,15.40
2023-10-08T02:06:22.064Z,15.38
2023-10-08T02:08:23.792Z,15.37
2023-10-08T02:10:26.309Z,15.33
2023-10-08T02:12:27.960Z,15.32
2023-10-08T02:14:32.627Z,15.29
2023-10-08T02:16:34.924Z,15.29
2023-10-08T02:18:36.990Z,15.33
2023-10-08T02:20:40.757Z,15.32
2023-10-08T02:22:42.482Z,15.40
2023-10-08T02:24:44.219Z,15.36
2023-10-08T02:26:45.955Z,15.34
2023-10-08T02:28:47.777Z,15.29
2023-10-08T02:30:49.614Z,15.29
2023-10-08T02:32:53.835Z,15.26
2023-10-08T02:34:55.550Z,15.29
2023-10-08T02:36:57.704Z,15.31
2023-10-08T02:38:59.271Z,15.34
2023-10-08T02:41:00.892Z,15.31
2023-10-08T02:43:02.963Z,15.34
2023-10-08T02:45:05.812Z,15.36
2023-10-08T02:47:09.235Z,15.34
2023-10-08T02:49:12.530Z,15.33
2023-10-08T02:51:17.177Z,15.27
2023-10-08T02:53:26.838Z,15.31
2023-10-08T02:55:35.839Z,15.32
2023-10-08T02:57:38.588Z,15.37
2023-10-08T02:59:41.601Z,15.44
2023-10-08T03:01:44.609Z,15.41
2023-10-08T03:03:48.729Z,15.47
2023-10-08T03:05:53.536Z,15.49
2023-10-08T03:07:55.304Z,15.42
2023-10-08T03:10:18.821Z,15.37
2023-10-08T03:12:20.400Z,15.34
2023-10-08T03:14:24.832Z,15.27
2023-10-08T03:16:34.867Z,15.26
2023-10-08T03:18:38.230Z,15.26
2023-10-08T03:20:44.184Z,15.23
2023-10-08T03:22:47.292Z,15.23
2023-10-08T03:24:49.895Z,15.15
2023-10-08T03:26:56.845Z,15.11
2023-10-08T03:29:00.484Z,15.15
2023-10-08T03:31:06.413Z,15.08
2023-10-08T03:33:11.737Z,15.08
2023-10-08T03:35:13.924Z,14.98
2023-10-08T03:37:30.469Z,15.02
2023-10-08T03:39:52.124Z,14.95
2023-10-08T03:42:07.085Z,14.95
2023-10-08T03:44:15.405Z,14.95
2023-10-08T03:46:17.198Z,14.93
2023-10-08T03:48:19.232Z,14.85
2023-10-08T03:50:33.943Z,14.96
2023-10-08T03:52:38.315Z,14.93
2023-10-08T03:54:49.022Z,14.89
2023-10-08T03:56:52.148Z,14.86
2023-10-08T03:58:55.521Z,14.91
2023-10-08T04:01:09.483Z,14.81
2023-10-08T04:03:24.533Z,14.88
2023-10-08T04:05:33.949Z,14.93
2023-10-08T04:08:01.683Z,14.97
2023-10-08T04:10:26.386Z,14.98
2023-10-08T04:12:28.169Z,14.97
2023-10-08T04:14:30.869Z,14.96
2023-10-08T04:16:38.552Z,14.87
2023-10-08T04:18:41.571Z,14.87
2023-10-08T04:21:02.158Z,14.91
2023-10-08T04:23:05.977Z,14.94
2023-10-08T04:25:07.956Z,14.99
2023-10-08T04:27:10.773Z,15.04
2023-10-08T04:29:17.537Z,15.04
2023-10-08T04:31:25.789Z,15.03
2023-10-08T04:33:29.194Z,15.01
2023-10-08T04:35:31.913Z,14.98
2023-10-08T04:37:34.313Z,14.89
2023-10-08T04:39:36.502Z,14.92
2023-10-08T04:41:43.619Z,14.90
2023-10-08T04:43:45.850Z,14.85
2023-10-08T04:45:47.606Z,14.81
2023-10-08T04:47:50.936Z,14.91
2023-10-08T04:49:54.202Z,14.87
2023-10-08T04:52:00.609Z,14.87
2023-10-08T04:54:05.814Z,14.83
2023-10-08T04:56:14.761Z,14.80
2023-10-08T04:58:22.415Z,14.81
2023-10-08T05:00:54.540Z,14.83
2023-10-08T05:03:04.959Z,14.86
2023-10-08T05:05:12.709Z,14.83
2023-10-08T05:07:33.181Z,14.78
2023-10-08T05:09:49.078Z,14.80
2023-10-08T05:11:53.549Z,14.87
2023-10-08T05:14:06.942Z,14.78
2023-10-08T05:16:34.610Z,14.79
2023-10-08T05:18:56.148Z,14.76
2023-10-08T05:21:03.308Z,14.73
2023-10-08T05:23:31.080Z,14.78
2023-10-08T05:25:54.947Z,14.78
2023-10-08T05:27:56.551Z,14.77
2023-10-08T05:30:18.590Z,14.82
2023-10-08T05:32:39.945Z,14.73
2023-10-08T05:34:55.881Z,14.69
2023-10-08T05:37:00.476Z,14.72
2023-10-08T05:39:02.459Z,14.65
2023-10-08T05:41:04.515Z,14.61
2023-10-08T05:43:23.893Z,14.67
2023-10-08T05:45:34.748Z,14.64
2023-10-08T05:47:38.405Z,14.64
2023-10-08T05:49:43.313Z,14.64
2023-10-08T05:51:45.953Z,14.67
2023-10-08T05:53:50.254Z,14.62
2023-10-08T05:56:02.366Z,14.60
2023-10-08T05:58:14.783Z,14.61
2023-10-08T06:00:16.612Z,14.62
2023-10-08T06:02:41.469Z,14.58
2023-10-08T06:05:05.912Z,14.64
2023-10-08T06:07:18.114Z,14.67
2023-10-08T06:09:22.587Z,14.70
2023-10-08T06:11:45.882Z,14.64
2023-10-08T06:13:56.421Z,14.61
2023-10-08T06:15:58.783Z,14.62
2023-10-08T06:18:06.114Z,14.70
2023-10-08T06:20:11.197Z,14.73
2023-10-08T06:22:12.994Z,14.79
2023-10-08T06:24:18.531Z,14.82
2023-10-08T06:26:22.177Z,14.83
2023-10-08T06:28:26.386Z,14.82
2023-10-08T06:30:35.923Z,14.84
2023-10-08T06:32:38.623Z,14.79
2023-10-08T06:34:41.490Z,14.81
2023-10-08T06:36:43.216Z,14.84
2023-10-08T06:38:49.971Z,14.82
2023-10-08T06:40:53.867Z,14.75
2023-10-08T06:42:58.040Z,14.81
2023-10-08T06:44:59.939Z,14.82
2023-10-08T06:47:01.679Z,14.84
2023-10-08T06:49:09.698Z,14.86
2023-10-08T06:51:14.138Z,14.89
2023-10-08T06:53:19.089Z,14.95
2023-10-08T06:55:25.526Z,14.98
2023-10-08T06:57:27.737Z,15.03
2023-10-08T06:59:32.565Z,15.04
2023-10-08T07:01:40.180Z,15.02
2023-10-08T07:03:42.107Z,15.03
2023-10-08T07:05:55.249Z,15.06
2023-10-08T07:07:57.070Z,15.11
2023-10-08T07:10:00.635Z,15.12
2023-10-08T07:12:06.949Z,15.17
2023-10-08T07:14:12.035Z,15.13
2023-10-08T07:16:18.443Z,15.11
2023-10-08T07:18:26.715Z,15.10
2023-10-08T07:20:29.543Z,15.10
2023-10-08T07:22:31.539Z,15.15
2023-10-08T07:24:36.046Z,15.22
2023-10-08T07:26:38.375Z,15.26
2023-10-08T07:28:42.869Z,15.34
2023-10-08T07:30:47.118Z,15.49
2023-10-08T07:32:48.825Z,15.57
2023-10-08T07:34:58.424Z,15.59
2023-10-08T07:37:01.090Z,15.63
2023-10-08T07:39:08.976Z,15.63
2023-10-08T07:41:15.552Z,15.69
2023-10-08T07:43:20.836Z,15.75
2023-10-08T07:45:22.725Z,15.75
2023-10-08T07:47:24.696Z,15.86
2023-10-08T07:49:26.556Z,15.87
2023-10-08T07:51:28.759Z,15.86
2023-10-08T07:53:39.449Z,15.89
2023-10-08T07:55:41.021Z,16.09
2023-10-08T07:57:43.120Z,16.14
2023-10-08T07:59:47.513Z,16.17
2023-10-08T08:01:49.272Z,16.12
2023-10-08T08:03:51.599Z,16.20
2023-10-08T08:05:54.108Z,16.17
2023-10-08T08:07:57.833Z,16.17
2023-10-08T08:10:00.175Z,16.19
2023-10-08T08:12:08.759Z,16.16
2023-10-08T08:14:10.979Z,16.14
2023-10-08T08:16:21.883Z,16.10
2023-10-08T08:18:24.015Z,16.19
2023-10-08T08:20:36.475Z,16.20
2023-10-08T08:22:41.860Z,16.18
2023-10-08T08:24:46.288Z,16.32
2023-10-08T08:27:07.426Z,16.32
2023-10-08T08:29:10.341Z,16.31
2023-10-08T08:31:14.877Z,16.38
2023-10-08T08:33:23.532Z,16.51
2023-10-08T08:35:25.934Z,16.59
2023-10-08T08:37:30.677Z,16.62
2023-10-08T08:39:36.409Z,16.52
2023-10-08T08:41:39.653Z,16.57
2023-10-08T08:43:45.415Z,16.66
2023-10-08T08:45:50.726Z,16.78
2023-10-08T08:47:53.588Z,16.81
2023-10-08T08:50:01.270Z,16.80
2023-10-08T08:52:03.457Z,16.84
2023-10-08T08:54:13.637Z,16.95
2023-10-08T08:56:25.118Z,17.07
2023-10-08T08:58:26.686Z,17.10
2023-10-08T09:00:31.007Z,17.18
2023-10-08T09:02:33.270Z,17.19
2023-10-08T09:04:35.315Z,17.18
2023-10-08T09:06:41.646Z,17.25
2023-10-08T09:08:46.720Z,17.22
2023-10-08T09:10:54.117Z,17.20
2023-10-08T09:13:00.424Z,17.27
2023-10-08T09:15:04.137Z,17.22
2023-10-08T09:17:06.749Z,17.23
2023-10-08T09:19:13.193Z,17.24
2023-10-08T09:21:20.110Z,17.27
2023-10-08T09:23:25.651Z,17.23
2023-10-08T09:25:30.017Z,17.27
2023-10-08T09:27:32.349Z,17.34
2023-10-08T09:29:41.102Z,17.35
2023-10-08T09:31:49.598Z,17.35
2023-10-08T09:33:55.395Z,17.48
2023-10-08T09:36:03.898Z,17.63
2023-10-08T09:38:10.146Z,17.68
2023-10-08T09:40:21.974Z,17.65
2023-10-08T09:42:25.744Z,17.68
2023-10-08T09:44:27.906Z,17.75
2023-10-08T09:46:37.744Z,17.85
2023-10-08T09:48:42.862Z,17.84
2023-10-08T09:50:47.489Z,17.64
2023-10-08T09:53:23.476Z,17.45
2023-10-08T09:55:25.380Z,17.47
2023-10-08T09:57:28.069Z,17.55
2023-10-08T09:59:30.400Z,17.60
2023-10-08T10:01:33.436Z,17.62
2023-10-08T10:03:37.959Z,17.59
2023-10-08T10:05:39.870Z,17.67
2023-10-08T10:07:44.594Z,17.70
2023-10-08T10:09:50.762Z,17.74
2023-10-08T10:11:54.446Z,17.82
2023-10-08T10:14:01.377Z,17.89
2023-10-08T10:16:03.489Z,17.97
2023-10-08T10:18:16.943Z,18.06
2023-10-08T10:20:21.375Z,18.05
2023-10-08T10:22:35.268Z,18.13
2023-10-08T10:24:42.712Z,18.22
2023-10-08T10:26:48.471Z,18.27
2023-10-08T10:29:10.026Z,18.34
2023-10-08T10:31:20.519Z,18.28
2023-10-08T10:33:30.977Z,18.23
2023-10-08T10:35:34.047Z,18.22
2023-10-08T10:37:42.703Z,18.33
2023-10-08T10:39:46.421Z,18.53
2023-10-08T10:41:49.801Z,18.58
2023-10-08T10:43:54.196Z,18.49
2023-10-08T10:45:57.508Z,18.45
2023-10-08T10:48:12.258Z,18.55
2023-10-08T10:50:27.862Z,18.66
2023-10-08T10:52:34.086Z,18.62
2023-10-08T10:54:39.826Z,18.67
2023-10-08T10:56:46.136Z,18.67
2023-10-08T10:58:54.554Z,18.62
2023-10-08T11:01:00.920Z,18.40
2023-10-08T11:03:05.182Z,18.41
2023-10-08T11:05:20.673Z,18.40
2023-10-08T11:07:24.573Z,18.40
2023-10-08T11:09:40.102Z,18.39
2023-10-08T11:11:45.017Z,18.29
2023-10-08T11:13:55.587Z,18.38
2023-10-08T11:15:59.300Z,18.50
2023-10-08T11:18:01.119Z,18.58
2023-10-08T11:20:08.514Z,18.79
2023-10-08T11:22:17.059Z,18.88
2023-10-08T11:24:29.640Z,18.95
2023-10-08T11:26:39.949Z,19.06
2023-10-08T11:28:43.378Z,19.16
2023-10-08T11:30:48.010Z,19.28
2023-10-08T11:32:49.783Z,19.39
2023-10-08T11:35:00.992Z,19.41
2023-10-08T11:37:05.212Z,19.22
2023-10-08T11:39:12.750Z,19.35
2023-10-08T11:41:22.729Z,19.44
2023-10-08T11:43:25.294Z,19.67
2023-10-08T11:45:28.276Z,19.82
2023-10-08T11:47:36.891Z,19.74
2023-10-08T11:49:48.031Z,19.62
2023-10-08T11:51:49.708Z,19.56
2023-10-08T11:53:53.139Z,19.50
2023-10-08T11:55:57.836Z,19.31
2023-10-08T11:58:01.495Z,19.29
2023-10-08T12:00:31.277Z,19.27
2023-10-08T12:02:35.312Z,19.31
2023-10-08T12:04:37.349Z,19.31
2023-10-08T12:06:43.316Z,19.17
2023-10-08T12:08:50.665Z,19.09
2023-10-08T12:10:55.512Z,19.04
2023-10-08T12:13:00.912Z,18.99
2023-10-08T12:15:04.587Z,18.93
2023-10-08T12:17:12.918Z,19.05
2023-10-08T12:19:17.812Z,19.17
2023-10-08T12:21:20.558Z,19.19
2023-10-08T12:23:30.053Z,19.26
2023-10-08T12:25:33.290Z,19.19
2023-10-08T12:27:35.552Z,19.26
2023-10-08T12:29:39.361Z,19.27
2023-10-08T12:31:42.041Z,19.26
2023-10-08T12:33:44.748Z,19.23
2023-10-08T12:35:48.602Z,19.19
2023-10-08T12:37:50.516Z,19.19
2023-10-08T12:40:12.473Z,19.14
2023-10-08T12:42:14.151Z,19.08
2023-10-08T12:44:16.843Z,19.07
2023-10-08T12:46:19.616Z,19.11
2023-10-08T12:48:29.721Z,19.26
2023-10-08T12:50:43.227Z,19.37
2023-10-08T12:52:54.031Z,19.48
2023-10-08T12:54:57.251Z,19.42
2023-10-08T12:57:00.095Z,19.35
2023-10-08T12:59:07.269Z,19.28
2023-10-08T13:01:12.793Z,19.26
2023-10-08T13:03:24.341Z,19.10
2023-10-08T13:05:29.204Z,19.16
2023-10-08T13:07:39.651Z,19.16
2023-10-08T13:09:41.245Z,19.13
2023-10-08T13:11:44.649Z,19.08
2023-10-08T13:13:46.412Z,19.00
2023-10-08T13:15:48.015Z,18.96
2023-10-08T13:17:50.008Z,18.92
2023-10-08T13:19:53.870Z,18.96
2023-10-08T13:21:55.874Z,19.02
2023-10-08T13:24:04.303Z,19.00
2023-10-08T13:26:08.291Z,19.03
2023-10-08T13:28:12.531Z,19.08
2023-10-08T13:30:14.479Z,19.16
2023-10-08T13:32:19.009Z,19.20
2023-10-08T13:34:22.519Z,19.28
2023-10-08T13:36:25.166Z,19.36
2023-10-08T13:38:30.973Z,19.32
2023-10-08T13:40:34.329Z,19.27
2023-10-08T13:42:36.019Z,19.37
2023-10-08T13:44:38.887Z,19.33
2023-10-08T13:46:44.215Z,19.32
2023-10-08T13:48:49.785Z,19.40
2023-10-08T13:50:52.908Z,19.43
2023-10-08T13:52:54.568Z,19.48
2023-10-08T13:54:56.506Z,19.69
2023-10-08T13:57:00.149Z,19.81
2023-10-08T13:59:07.602Z,19.96
2023-10-08T14:01:19.889Z,20.14
2023-10-08T14:03:25.820Z,20.27
2023-10-08T14:05:27.584Z,20.35
2023-10-08T14:07:29.436Z,20.43
2023-10-08T14:09:38.526Z,20.53
2023-10-08T14:11:40.769Z,20.67
2023-10-08T14:13:43.198Z,20.74
2023-10-08T14:15:49.043Z,20.80
2023-10-08T14:17:54.807Z,20.94
2023-10-08T14:20:08.041Z,21.11
2023-10-08T14:22:09.859Z,21.27
2023-10-08T14:24:16.532Z,21.36
2023-10-08T14:26:18.298Z,21.46
2023-10-08T14:28:23.043Z,21.33
2023-10-08T14:30:26.167Z,21.36
2023-10-08T14:32:33.340Z,21.41
2023-10-08T14:34:44.379Z,21.38
2023-10-08T14:37:09.013Z,21.30
2023-10-08T14:39:30.021Z,21.12
2023-10-08T14:41:50.609Z,21.13
2023-10-08T14:43:52.866Z,21.31
2023-10-08T14:45:54.571Z,21.23
2023-10-08T14:47:57.361Z,21.14
2023-10-08T14:50:01.510Z,21.30
2023-10-08T14:52:05.194Z,21.18
2023-10-08T14:54:08.148Z,21.29
2023-10-08T14:56:10.159Z,21.20
2023-10-08T14:58:12.270Z,21.12
2023-10-08T15:00:14.877Z,20.99
2023-10-08T15:02:17.002Z,20.83
2023-10-08T15:04:19.525Z,20.76
2023-10-08T15:06:21.814Z,20.80
2023-10-08T15:08:24.929Z,20.78
2023-10-08T15:10:26.896Z,20.77
2023-10-08T15:12:29.390Z,20.79
2023-10-08T15:14:32.345Z,20.77
2023-10-08T15:16:34.573Z,20.72
2023-10-08T15:18:43.109Z,20.70
2023-10-08T15:20:45.054Z,20.51
2023-10-08T15:22:48.345Z,20.41
2023-10-08T15:24:49.908Z,20.36
2023-10-08T15:26:53.680Z,20.23
2023-10-08T15:28:55.970Z,20.16
2023-10-08T15:30:57.585Z,20.01
2023-10-08T15:32:59.500Z,19.96
2023-10-08T15:35:01.188Z,19.86
2023-10-08T15:37:02.832Z,19.68
2023-10-08T15:39:06.350Z,19.54
2023-10-08T15:41:07.930Z,19.36
2023-10-08T15:43:09.491Z,19.32
2023-10-08T15:45:14.852Z,19.22
2023-10-08T15:47:18.679Z,18.79
2023-10-08T15:49:20.558Z,18.32
2023-10-08T15:51:22.218Z,18.33
2023-10-08T15:53:23.831Z,18.45
2023-10-08T15:55:27.293Z,18.48
2023-10-08T15:57:28.954Z,18.46
2023-10-08T15:59:30.746Z,18.37
2023-10-08T16:01:32.871Z,18.30
2023-10-08T16:03:34.903Z,18.07
2023-10-08T16:05:37.659Z,17.93
2023-10-08T16:07:39.962Z,18.14
2023-10-08T16:09:44.808Z,18.25
2023-10-08T16:11:46.504Z,18.24
2023-10-08T16:13:48.214Z,18.19
2023-10-08T16:15:50.410Z,18.33
2023-10-08T16:17:52.537Z,18.30
2023-10-08T16:19:54.396Z,18.32
2023-10-08T16:21:56.502Z,18.21
2023-10-08T16:23:59.223Z,18.18
2023-10-08T16:26:01.244Z,18.15
2023-10-08T16:28:04.794Z,18.05
2023-10-08T16:30:12.762Z,17.92
2023-10-08T16:32:14.683Z,17.95
2023-10-08T16:34:19.739Z,17.86
2023-10-08T16:36:21.380Z,17.63
2023-10-08T16:38:23.792Z,17.60
2023-10-08T16:40:25.448Z,17.46
2023-10-08T16:42:27.597Z,17.47
2023-10-08T16:44:29.735Z,17.45
2023-10-08T16:46:31.251Z,17.42
2023-10-08T16:48:33.990Z,17.37
2023-10-08T16:50:35.853Z,17.37
2023-10-08T16:52:37.457Z,17.26
2023-10-08T16:54:39.089Z,17.16
2023-10-08T16:56:40.992Z,17.20
2023-10-08T16:58:42.734Z,17.16
2023-10-08T17:00:44.907Z,17.12
2023-10-08T17:02:46.512Z,16.93
2023-10-08T17:04:48.276Z,16.99
2023-10-08T17:06:50.922Z,16.97
2023-10-08T17:08:53.706Z,16.94
2023-10-08T17:10:55.744Z,16.78
2023-10-08T17:13:00.435Z,16.76
2023-10-08T17:15:02.549Z,16.58
2023-10-08T17:17:05.270Z,16.54
2023-10-08T17:19:08.608Z,16.59
2023-10-08T17:21:10.393Z,16.39
2023-10-08T17:23:12.240Z,16.29
2023-10-08T17:25:14.176Z,16.31
2023-10-08T17:27:15.788Z,16.22
2023-10-08T17:29:18.836Z,16.15
2023-10-08T17:31:20.726Z,16.14
2023-10-08T17:33:22.695Z,16.14
2023-10-08T17:35:24.422Z,16.17
2023-10-08T17:37:27.101Z,16.15
2023-10-08T17:39:28.952Z,16.03
2023-10-08T17:41:30.831Z,15.97
2023-10-08T17:43:32.947Z,15.92
2023-10-08T17:45:36.913Z,16.00
2023-10-08T17:47:40.432Z,15.89
2023-10-08T17:49:43.183Z,15.79
2023-10-08T17:51:45.088Z,15.77
2023-10-08T17:53:46.860Z,15.74
2023-10-08T17:55:48.672Z,15.69
2023-10-08T17:57:50.306Z,15.54
2023-10-08T17:59:52.061Z,15.29
2023-10-08T18:01:54.389Z,15.06
2023-10-08T18:03:56.143Z,14.87
2023-10-08T18:05:58.380Z,14.83
2023-10-08T18:08:00.570Z,14.86
2023-10-08T18:10:02.685Z,14.95
2023-10-08T18:12:04.727Z,15.06
2023-10-08T18:14:07.103Z,15.20
2023-10-08T18:16:13.839Z,15.24
2023-10-08T18:18:16.061Z,15.31
2023-10-08T18:20:21.130Z,15.38
2023-10-08T18:22:23.575Z,15.42
2023-10-08T18:24:29.113Z,15.47
2023-10-08T18:26:30.894Z,15.42
2023-10-08T18:28:32.737Z,15.13
2023-10-08T18:30:34.485Z,14.81
2023-10-08T18:32:37.414Z,14.71
2023-10-08T18:34:39.785Z,14.70
2023-10-08T18:36:42.460Z,14.80
2023-10-08T18:38:44.100Z,14.86
2023-10-08T18:40:46.534Z,14.84
2023-10-08T18:42:48.234Z,14.90
2023-10-08T18:44:51.015Z,14.81
2023-10-08T18:46:53.770Z,14.77
2023-10-08T18:48:55.733Z,14.85
2023-10-08T18:51:12.085Z,14.92
2023-10-08T18:53:14.107Z,14.97
2023-10-08T18:55:16.284Z,15.00
2023-10-08T18:57:18.708Z,15.01
2023-10-08T18:59:21.668Z,14.98
2023-10-08T19:01:27.489Z,14.81
2023-10-08T19:03:29.569Z,14.87
2023-10-08T19:05:31.230Z,14.94
2023-10-08T19:07:36.123Z,14.92
2023-10-08T19:09:38.118Z,14.91
2023-10-08T19:11:39.881Z,14.84
2023-10-08T19:13:41.580Z,14.82
2023-10-08T19:15:43.391Z,14.83
2023-10-08T19:17:47.947Z,14.79
2023-10-08T19:19:49.914Z,14.82
2023-10-08T19:21:51.759Z,14.67
2023-10-08T19:23:54.517Z,14.64
2023-10-08T19:25:56.640Z,14.56
2023-10-08T19:28:00.155Z,14.48
2023-10-08T19:30:07.456Z,14.27
2023-10-08T19:32:12.145Z,14.28
2023-10-08T19:34:14.473Z,14.20
2023-10-08T19:36:16.121Z,14.21
2023-10-08T19:38:17.881Z,14.26
2023-10-08T19:40:22.828Z,14.23
2023-10-08T19:42:24.652Z,14.18
2023-10-08T19:44:27.043Z,14.16
2023-10-08T19:46:28.991Z,14.24
2023-10-08T19:48:32.624Z,14.23
2023-10-08T19:50:41.838Z,14.25
2023-10-08T19:52:44.704Z,14.24
2023-10-08T19:54:47.472Z,14.30
2023-10-08T19:56:49.748Z,14.31
2023-10-08T19:58:52.272Z,14.33
2023-10-08T20:00:53.910Z,14.24
2023-10-08T20:02:56.479Z,14.21
2023-10-08T20:04:58.216Z,14.22
2023-10-08T20:06:59.794Z,14.11
2023-10-08T20:09:02.479Z,14.11
2023-10-08T20:11:04.636Z,13.93
2023-10-08T20:13:06.726Z,13.74
2023-10-08T20:15:12.817Z,13.62
2023-10-08T20:17:14.406Z,13.54
2023-10-08T20:19:20.296Z,13.59
2023-10-08T20:21:22.965Z,13.66
2023-10-08T20:23:30.768Z,13.58
2023-10-08T20:25:37.604Z,13.41
2023-10-08T20:27:43.315Z,13.30
2023-10-08T20:29:46.179Z,13.33
2023-10-08T20:31:49.781Z,13.40
2023-10-08T20:33:54.239Z,13.39
2023-10-08T20:35:57.268Z,13.30
2023-10-08T20:37:59.075Z,13.36
2023-10-08T20:40:00.654Z,13.36
2023-10-08T20:42:02.526Z,13.39
2023-10-08T20:44:04.545Z,13.41
2023-10-08T20:46:07.955Z,13.37
2023-10-08T20:48:14.676Z,13.30
2023-10-08T20:50:30.523Z,13.17
2023-10-08T20:52:34.596Z,13.19
2023-10-08T20:54:36.627Z,13.08
2023-10-08T20:56:38.630Z,13.10
2023-10-08T20:58:40.277Z,13.01
2023-10-08T21:00:46.278Z,13.07
2023-10-08T21:02:55.749Z,13.06
2023-10-08T21:04:58.044Z,13.08
2023-10-08T21:07:00.905Z,13.09
2023-10-08T21:09:03.063Z,12.99
2023-10-08T21:11:05.165Z,13.09
2023-10-08T21:13:07.441Z,13.12
2023-10-08T21:15:20.934Z,13.11
2023-10-08T21:17:24.519Z,13.08
2023-10-08T21:19:27.102Z,13.15
2023-10-08T21:21:29.504Z,13.15
2023-10-08T21:23:31.178Z,13.13
2023-10-08T21:25:33.561Z,13.16
2023-10-08T21:27:40.358Z,13.21
2023-10-08T21:29:41.975Z,13.20
2023-10-08T21:31:43.801Z,13.23
2023-10-08T21:33:45.948Z,13.28
2023-10-08T21:35:47.922Z,13.27
2023-10-08T21:37:51.423Z,13.25
2023-10-08T21:39:53.193Z,13.15
2023-10-08T21:41:54.899Z,13.11
2023-10-08T21:43:56.488Z,13.11
2023-10-08T21:45:58.124Z,13.10
2023-10-08T21:48:01.114Z,13.08
2023-10-08T21:50:04.415Z,13.07
2023-10-08T21:52:06.165Z,13.08
2023-10-08T21:54:08.112Z,12.98
2023-10-08T21:56:09.942Z,13.02
2023-10-08T21:58:11.552Z,13.01
2023-10-08T22:00:26.434Z,12.99
2023-10-08T22:02:44.714Z,12.90
2023-10-08T22:04:50.527Z,12.92
2023-10-08T22:06:54.917Z,12.91
2023-10-08T22:08:57.713Z,12.80
2023-10-08T22:10:59.380Z,12.87
2023-10-08T22:13:05.838Z,12.83
2023-10-08T22:15:17.455Z,12.78
2023-10-08T22:17:27.568Z,12.76
2023-10-08T22:19:33.738Z,12.81
2023-10-08T22:21:36.305Z,12.74
2023-10-08T22:23:40.012Z,12.69
2023-10-08T22:25:48.346Z,12.68
2023-10-08T22:27:50.852Z,12.72
2023-10-08T22:29:52.532Z,12.69
2023-10-08T22:31:57.057Z,12.59
2023-10-08T22:34:07.573Z,12.58
2023-10-08T22:36:29.647Z,12.59
2023-10-08T22:38:33.209Z,12.48
2023-10-08T22:40:49.738Z,12.44
2023-10-08T22:42:52.128Z,12.42
2023-10-08T22:44:57.015Z,12.33
2023-10-08T22:47:08.354Z,12.37
2023-10-08T22:49:20.622Z,12.38
2023-10-08T22:51:26.774Z,12.35
2023-10-08T22:53:29.325Z,12.33
2023-10-08T22:55:37.934Z,12.32
2023-10-08T22:57:39.479Z,12.34
2023-10-08T22:59:41.632Z,12.29
2023-10-08T23:01:54.377Z,12.27
2023-10-08T23:03:57.319Z,12.29
2023-10-08T23:05:59.400Z,12.23
2023-10-08T23:08:01.285Z,12.28
2023-10-08T23:10:02.869Z,12.34
2023-10-08T23:12:06.162Z,12.33
2023-10-08T23:14:09.857Z,12.37
2023-10-08T23:16:16.387Z,12.45
2023-10-08T23:18:24.561Z,12.40
2023-10-08T23:20:26.745Z,12.47
2023-10-08T23:22:28.772Z,12.55
2023-10-08T23:24:30.694Z,12.54
2023-10-08T23:26:32.634Z,12.46
2023-10-08T23:28:35.398Z,12.48
2023-10-08T23:30:37.956Z,12.41
2023-10-08T23:32:43.571Z,12.47
2023-10-08T23:34:45.365Z,12.42
2023-10-08T23:36:52.459Z,12.44
2023-10-08T23:39:08.168Z,12.48
2023-10-08T23:41:16.916Z,12.51
2023-10-08T23:43:18.655Z,12.58
2023-10-08T23:45:27.823Z,12.55
2023-10-08T23:47:29.783Z,12.49
2023-10-08T23:49:31.816Z,12.54
2023-10-08T23:51:39.447Z,12.57
2023-10-08T23:53:48.242Z,12.59
2023-10-08T23:56:02.260Z,12.57
2023-10-08T23:58:18.145Z,12.58
